sensor_id;sensor_type;location;lat;lon;timestamp;pressure;altitude;pressure_sealevel;temperature;humidity
6032;BME280;3044;43.232;27.972;2022-09-09T00:01:01;45060.50;;;-143.84;66.70
6032;BME280;3044;43.232;27.972;2022-09-09T00:03:39;45077.63;;;-143.84;66.64
6032;BME280;3044;43.232;27.972;2022-09-09T00:06:16;45066.22;;;-143.84;66.98
6032;BME280;3044;43.232;27.972;2022-09-09T00:08:54;45089.06;;;-143.84;66.94
6032;BME280;3044;43.232;27.972;2022-09-09T00:11:28;45058.59;;;-143.84;66.80
6032;BME280;3044;43.232;27.972;2022-09-09T00:13:58;45039.53;;;-143.84;66.90
6032;BME280;3044;43.232;27.972;2022-09-09T00:16:32;45071.91;;;-143.84;66.79
6032;BME280;3044;43.232;27.972;2022-09-09T00:19:07;45030.03;;;-143.84;67.03
6032;BME280;3044;43.232;27.972;2022-09-09T00:21:37;45047.16;;;-143.84;67.21
6032;BME280;3044;43.232;27.972;2022-09-09T00:24:12;45045.25;;;-143.84;67.17
6032;BME280;3044;43.232;27.972;2022-09-09T00:26:45;45068.13;;;-143.84;67.07
6032;BME280;3044;43.232;27.972;2022-09-09T00:29:22;45070.00;;;-143.84;67.21
6032;BME280;3044;43.232;27.972;2022-09-09T00:31:54;45045.25;;;-143.84;67.03
6032;BME280;3044;43.232;27.972;2022-09-09T00:34:26;45058.59;;;-143.84;67.25
6032;BME280;3044;43.232;27.972;2022-09-09T00:36:56;45056.69;;;-143.84;66.98
6032;BME280;3044;43.232;27.972;2022-09-09T00:39:30;45090.97;;;-143.84;67.04
6032;BME280;3044;43.232;27.972;2022-09-09T00:42:11;45043.34;;;-143.84;67.23
6032;BME280;3044;43.232;27.972;2022-09-09T00:44:51;45039.53;;;-143.84;67.36
6032;BME280;3044;43.232;27.972;2022-09-09T00:47:35;45064.31;;;-143.84;67.13
6032;BME280;3044;43.232;27.972;2022-09-09T00:50:17;45073.81;;;-143.84;67.11
6032;BME280;3044;43.232;27.972;2022-09-09T00:52:58;45062.41;;;-143.84;66.78
6032;BME280;3044;43.232;27.972;2022-09-09T00:55:33;45052.88;;;-143.84;66.55
6032;BME280;3044;43.232;27.972;2022-09-09T00:58:06;45077.63;;;-143.84;66.16
6032;BME280;3044;43.232;27.972;2022-09-09T01:00:42;45070.00;;;-143.84;66.13
6032;BME280;3044;43.232;27.972;2022-09-09T01:03:20;45066.22;;;-143.84;66.15
6032;BME280;3044;43.232;27.972;2022-09-09T01:05:57;45068.13;;;-143.84;65.79
6032;BME280;3044;43.232;27.972;2022-09-09T01:11:33;45056.69;;;-143.84;65.96
6032;BME280;3044;43.232;27.972;2022-09-09T01:14:13;45073.81;;;-143.84;65.88
6032;BME280;3044;43.232;27.972;2022-09-09T01:16:44;45062.41;;;-143.84;66.11
6032;BME280;3044;43.232;27.972;2022-09-09T01:19:20;45039.53;;;-143.84;65.96
6032;BME280;3044;43.232;27.972;2022-09-09T01:21:55;45052.88;;;-143.84;66.13
6032;BME280;3044;43.232;27.972;2022-09-09T01:24:36;45052.88;;;-143.84;66.16
6032;BME280;3044;43.232;27.972;2022-09-09T01:27:07;45056.69;;;-143.84;66.54
6032;BME280;3044;43.232;27.972;2022-09-09T01:29:36;45050.97;;;-143.84;66.45
6032;BME280;3044;43.232;27.972;2022-09-09T01:32:39;45056.69;;;-143.84;66.36
6032;BME280;3044;43.232;27.972;2022-09-09T01:35:11;45052.88;;;-143.84;66.73
6032;BME280;3044;43.232;27.972;2022-09-09T01:37:41;45050.97;;;-143.84;66.98
6032;BME280;3044;43.232;27.972;2022-09-09T01:40:09;45068.13;;;-143.84;67.35
6032;BME280;3044;43.232;27.972;2022-09-09T01:42:37;45058.59;;;-143.84;67.35
6032;BME280;3044;43.232;27.972;2022-09-09T01:45:06;45054.78;;;-143.84;67.47
6032;BME280;3044;43.232;27.972;2022-09-09T01:47:34;45066.22;;;-143.84;67.43
6032;BME280;3044;43.232;27.972;2022-09-09T01:50:02;45054.78;;;-143.84;67.39
6032;BME280;3044;43.232;27.972;2022-09-09T01:52:30;45079.53;;;-143.84;67.50
6032;BME280;3044;43.232;27.972;2022-09-09T01:54:57;45054.78;;;-143.84;67.72
6032;BME280;3044;43.232;27.972;2022-09-09T01:57:27;45041.44;;;-143.84;67.96
6032;BME280;3044;43.232;27.972;2022-09-09T02:00:04;45045.25;;;-143.84;68.07
6032;BME280;3044;43.232;27.972;2022-09-09T02:02:36;45068.13;;;-143.84;68.07
6032;BME280;3044;43.232;27.972;2022-09-09T02:05:16;45073.81;;;-143.84;68.43
6032;BME280;3044;43.232;27.972;2022-09-09T02:07:47;45050.97;;;-143.84;68.53
6032;BME280;3044;43.232;27.972;2022-09-09T02:10:19;45068.13;;;-143.84;68.61
6032;BME280;3044;43.232;27.972;2022-09-09T02:12:50;45049.06;;;-143.84;68.96
6032;BME280;3044;43.232;27.972;2022-09-09T02:15:30;45062.41;;;-143.84;68.94
6032;BME280;3044;43.232;27.972;2022-09-09T02:18:01;45054.78;;;-143.84;69.11
6032;BME280;3044;43.232;27.972;2022-09-09T02:20:32;45066.22;;;-143.84;69.43
6032;BME280;3044;43.232;27.972;2022-09-09T02:23:01;45087.16;;;-143.84;69.71
6032;BME280;3044;43.232;27.972;2022-09-09T02:25:29;45079.53;;;-143.84;69.89
6032;BME280;3044;43.232;27.972;2022-09-09T02:27:56;45054.78;;;-143.84;70.34
6032;BME280;3044;43.232;27.972;2022-09-09T02:30:27;45071.91;;;-143.84;70.31
6032;BME280;3044;43.232;27.972;2022-09-09T02:32:58;45070.00;;;-143.84;70.71
6032;BME280;3044;43.232;27.972;2022-09-09T02:35:28;45066.22;;;-143.84;70.62
6032;BME280;3044;43.232;27.972;2022-09-09T02:38:00;45037.66;;;-143.84;70.77
6032;BME280;3044;43.232;27.972;2022-09-09T02:40:29;45022.41;;;-143.84;70.92
6032;BME280;3044;43.232;27.972;2022-09-09T02:42:56;45068.13;;;-143.84;71.01
6032;BME280;3044;43.232;27.972;2022-09-09T02:45:31;45047.16;;;-143.84;71.15
6032;BME280;3044;43.232;27.972;2022-09-09T02:48:09;45083.34;;;-143.84;71.03
6032;BME280;3044;43.232;27.972;2022-09-09T02:50:43;45045.25;;;-143.84;71.36
6032;BME280;3044;43.232;27.972;2022-09-09T02:53:17;45073.81;;;-143.84;71.50
6032;BME280;3044;43.232;27.972;2022-09-09T02:55:48;45083.34;;;-143.84;71.64
6032;BME280;3044;43.232;27.972;2022-09-09T02:58:17;45070.00;;;-143.84;71.63
6032;BME280;3044;43.232;27.972;2022-09-09T03:00:48;45066.22;;;-143.84;71.57
6032;BME280;3044;43.232;27.972;2022-09-09T03:03:17;45079.53;;;-143.84;71.63
6032;BME280;3044;43.232;27.972;2022-09-09T03:05:45;45071.91;;;-143.84;71.65
6032;BME280;3044;43.232;27.972;2022-09-09T03:08:13;45045.25;;;-143.84;71.85
6032;BME280;3044;43.232;27.972;2022-09-09T03:10:40;45060.50;;;-143.84;71.88
6032;BME280;3044;43.232;27.972;2022-09-09T03:13:07;45052.88;;;-143.84;72.02
6032;BME280;3044;43.232;27.972;2022-09-09T03:15:35;45056.69;;;-143.84;72.08
6032;BME280;3044;43.232;27.972;2022-09-09T03:18:04;45043.34;;;-143.84;72.37
6032;BME280;3044;43.232;27.972;2022-09-09T03:20:31;45071.91;;;-143.84;72.50
6032;BME280;3044;43.232;27.972;2022-09-09T03:22:59;45081.44;;;-143.84;72.88
6032;BME280;3044;43.232;27.972;2022-09-09T03:25:28;45056.69;;;-143.84;72.86
6032;BME280;3044;43.232;27.972;2022-09-09T03:27:55;45060.50;;;-143.84;72.79
6032;BME280;3044;43.232;27.972;2022-09-09T03:30:23;45068.13;;;-143.84;72.82
6032;BME280;3044;43.232;27.972;2022-09-09T03:32:51;45039.53;;;-143.84;73.13
6032;BME280;3044;43.232;27.972;2022-09-09T03:35:20;45079.53;;;-143.84;72.99
6032;BME280;3044;43.232;27.972;2022-09-09T03:37:47;45075.72;;;-143.84;73.19
6032;BME280;3044;43.232;27.972;2022-09-09T03:40:14;45089.06;;;-143.84;73.30
6032;BME280;3044;43.232;27.972;2022-09-09T03:42:42;45075.72;;;-143.84;73.41
6032;BME280;3044;43.232;27.972;2022-09-09T03:45:09;45087.16;;;-143.84;73.64
6032;BME280;3044;43.232;27.972;2022-09-09T03:47:38;45058.59;;;-143.84;73.64
6032;BME280;3044;43.232;27.972;2022-09-09T03:50:05;45071.91;;;-143.84;73.74
6032;BME280;3044;43.232;27.972;2022-09-09T03:52:36;45056.69;;;-143.84;73.74
6032;BME280;3044;43.232;27.972;2022-09-09T03:55:05;45068.13;;;-143.84;73.73
6032;BME280;3044;43.232;27.972;2022-09-09T03:57:32;45064.31;;;-143.84;73.81
6032;BME280;3044;43.232;27.972;2022-09-09T04:00:02;45062.41;;;-143.84;73.88
6032;BME280;3044;43.232;27.972;2022-09-09T04:02:30;45083.34;;;-143.84;73.87
6032;BME280;3044;43.232;27.972;2022-09-09T04:04:57;45079.53;;;-143.84;74.21
6032;BME280;3044;43.232;27.972;2022-09-09T04:07:25;45062.41;;;-143.84;74.08
6032;BME280;3044;43.232;27.972;2022-09-09T04:09:55;45071.91;;;-143.84;74.16
6032;BME280;3044;43.232;27.972;2022-09-09T04:12:22;45073.81;;;-143.84;74.14
6032;BME280;3044;43.232;27.972;2022-09-09T04:14:49;45037.66;;;-143.84;73.96
6032;BME280;3044;43.232;27.972;2022-09-09T04:17:16;45083.34;;;-143.84;73.82
6032;BME280;3044;43.232;27.972;2022-09-09T04:19:44;45071.91;;;-143.84;73.96
6032;BME280;3044;43.232;27.972;2022-09-09T04:22:12;45066.22;;;-143.84;74.13
6032;BME280;3044;43.232;27.972;2022-09-09T04:24:39;45073.81;;;-143.84;74.09
6032;BME280;3044;43.232;27.972;2022-09-09T04:27:07;45089.06;;;-143.84;73.90
6032;BME280;3044;43.232;27.972;2022-09-09T04:29:34;45079.53;;;-143.84;73.83
6032;BME280;3044;43.232;27.972;2022-09-09T04:32:02;45041.44;;;-143.84;73.88
6032;BME280;3044;43.232;27.972;2022-09-09T04:34:29;45049.06;;;-143.84;73.99
6032;BME280;3044;43.232;27.972;2022-09-09T04:36:56;45075.72;;;-143.84;73.70
6032;BME280;3044;43.232;27.972;2022-09-09T04:39:25;45081.44;;;-143.84;73.94
6032;BME280;3044;43.232;27.972;2022-09-09T04:41:53;45089.06;;;-143.84;73.67
6032;BME280;3044;43.232;27.972;2022-09-09T04:44:22;45056.69;;;-143.84;73.67
6032;BME280;3044;43.232;27.972;2022-09-09T04:46:49;45045.25;;;-143.84;73.10
6032;BME280;3044;43.232;27.972;2022-09-09T04:49:16;45056.69;;;-143.84;71.77
6032;BME280;3044;43.232;27.972;2022-09-09T04:51:43;45041.44;;;-143.84;70.32
6032;BME280;3044;43.232;27.972;2022-09-09T04:54:11;45050.97;;;-143.84;68.83
6032;BME280;3044;43.232;27.972;2022-09-09T04:56:38;45026.22;;;-143.84;68.08
6032;BME280;3044;43.232;27.972;2022-09-09T04:59:07;45049.06;;;-143.84;66.46
6032;BME280;3044;43.232;27.972;2022-09-09T05:01:36;45033.84;;;-143.84;65.13
6032;BME280;3044;43.232;27.972;2022-09-09T05:04:04;45037.66;;;-143.84;63.17
6032;BME280;3044;43.232;27.972;2022-09-09T05:06:31;45045.25;;;-143.84;61.54
6032;BME280;3044;43.232;27.972;2022-09-09T05:08:58;45005.28;;;-143.84;60.46
6032;BME280;3044;43.232;27.972;2022-09-09T05:11:27;45014.78;;;-143.84;60.09
6032;BME280;3044;43.232;27.972;2022-09-09T05:13:55;45031.94;;;-143.84;58.71
6032;BME280;3044;43.232;27.972;2022-09-09T05:16:23;45009.09;;;-143.84;57.04
6032;BME280;3044;43.232;27.972;2022-09-09T05:18:52;45014.78;;;-143.84;56.85
6032;BME280;3044;43.232;27.972;2022-09-09T05:21:20;44976.72;;;-143.84;56.23
6032;BME280;3044;43.232;27.972;2022-09-09T05:23:49;45012.88;;;-143.84;54.98
6032;BME280;3044;43.232;27.972;2022-09-09T05:26:17;45005.28;;;-143.84;55.18
6032;BME280;3044;43.232;27.972;2022-09-09T06:09:56;45016.69;;;-143.84;57.99
6032;BME280;3044;43.232;27.972;2022-09-09T06:12:25;45010.97;;;-143.84;57.80
6032;BME280;3044;43.232;27.972;2022-09-09T06:14:52;45014.78;;;-143.84;57.17
6032;BME280;3044;43.232;27.972;2022-09-09T06:17:20;44978.63;;;-143.84;56.64
6032;BME280;3044;43.232;27.972;2022-09-09T06:19:47;44976.72;;;-143.84;55.66
6032;BME280;3044;43.232;27.972;2022-09-09T06:22:14;44940.53;;;-143.84;54.76
6032;BME280;3044;43.232;27.972;2022-09-09T06:24:42;44993.84;;;-143.84;55.26
6032;BME280;3044;43.232;27.972;2022-09-09T06:27:11;44984.31;;;-143.84;54.34
6032;BME280;3044;43.232;27.972;2022-09-09T06:29:39;44988.13;;;-143.84;55.08
6032;BME280;3044;43.232;27.972;2022-09-09T06:32:06;44982.41;;;-143.84;55.14
6032;BME280;3044;43.232;27.972;2022-09-09T06:34:34;44976.72;;;-143.84;55.69
6032;BME280;3044;43.232;27.972;2022-09-09T06:37:02;44972.91;;;-143.84;54.78
6032;BME280;3044;43.232;27.972;2022-09-09T06:39:30;44963.38;;;-143.84;54.17
6032;BME280;3044;43.232;27.972;2022-09-09T06:41:57;44986.22;;;-143.84;54.83
6032;BME280;3044;43.232;27.972;2022-09-09T06:44:25;44982.41;;;-143.84;56.08
6032;BME280;3044;43.232;27.972;2022-09-09T06:46:53;44982.41;;;-143.84;55.97
6032;BME280;3044;43.232;27.972;2022-09-09T06:49:20;44946.25;;;-143.84;54.18
6032;BME280;3044;43.232;27.972;2022-09-09T06:51:47;44950.06;;;-143.84;55.32
6032;BME280;3044;43.232;27.972;2022-09-09T06:54:15;44990.03;;;-143.84;55.06
6032;BME280;3044;43.232;27.972;2022-09-09T06:56:42;44965.28;;;-143.84;55.86
6032;BME280;3044;43.232;27.972;2022-09-09T06:59:11;44978.63;;;-143.84;55.63
6032;BME280;3044;43.232;27.972;2022-09-09T07:01:42;44963.38;;;-143.84;57.36
6032;BME280;3044;43.232;27.972;2022-09-09T07:04:09;44993.84;;;-143.84;55.80
6032;BME280;3044;43.232;27.972;2022-09-09T07:06:38;44988.13;;;-143.84;56.61
6032;BME280;3044;43.232;27.972;2022-09-09T07:09:07;44995.75;;;-143.84;56.06
6032;BME280;3044;43.232;27.972;2022-09-09T07:11:38;45003.38;;;-143.84;56.11
6032;BME280;3044;43.232;27.972;2022-09-09T07:14:06;44991.94;;;-143.84;56.85
6032;BME280;3044;43.232;27.972;2022-09-09T07:16:34;45005.28;;;-143.84;57.33
6032;BME280;3044;43.232;27.972;2022-09-09T07:19:04;44982.41;;;-143.84;58.09
6032;BME280;3044;43.232;27.972;2022-09-09T07:21:32;44984.31;;;-143.84;56.85
6032;BME280;3044;43.232;27.972;2022-09-09T07:23:59;44986.22;;;-143.84;56.56
6032;BME280;3044;43.232;27.972;2022-09-09T07:26:28;44986.22;;;-143.84;56.18
6032;BME280;3044;43.232;27.972;2022-09-09T07:28:56;44991.94;;;-143.84;57.11
6032;BME280;3044;43.232;27.972;2022-09-09T07:31:24;44984.31;;;-143.84;57.69
6032;BME280;3044;43.232;27.972;2022-09-09T07:33:51;44991.94;;;-143.84;58.89
6032;BME280;3044;43.232;27.972;2022-09-09T07:36:22;44976.72;;;-143.84;58.73
6032;BME280;3044;43.232;27.972;2022-09-09T07:38:51;44997.66;;;-143.84;58.48
6032;BME280;3044;43.232;27.972;2022-09-09T07:41:21;44976.72;;;-143.84;58.20
6032;BME280;3044;43.232;27.972;2022-09-09T07:43:50;44986.22;;;-143.84;58.01
6032;BME280;3044;43.232;27.972;2022-09-09T07:46:20;44986.22;;;-143.84;57.88
6032;BME280;3044;43.232;27.972;2022-09-09T07:48:50;44971.00;;;-143.84;57.57
6032;BME280;3044;43.232;27.972;2022-09-09T07:51:21;45007.19;;;-143.84;57.15
6032;BME280;3044;43.232;27.972;2022-09-09T07:53:51;45001.47;;;-143.84;56.31
6032;BME280;3044;43.232;27.972;2022-09-09T07:56:19;44963.38;;;-143.84;54.27
6032;BME280;3044;43.232;27.972;2022-09-09T07:58:49;44991.94;;;-143.84;56.85
6032;BME280;3044;43.232;27.972;2022-09-09T08:01:18;44972.91;;;-143.84;56.70
6032;BME280;3044;43.232;27.972;2022-09-09T08:03:52;44984.31;;;-143.84;56.05
6032;BME280;3044;43.232;27.972;2022-09-09T08:06:22;44980.53;;;-143.84;55.54
6032;BME280;3044;43.232;27.972;2022-09-09T08:08:51;44991.94;;;-143.84;54.36
6032;BME280;3044;43.232;27.972;2022-09-09T08:11:19;44988.13;;;-143.84;55.04
6032;BME280;3044;43.232;27.972;2022-09-09T08:13:46;44976.72;;;-143.84;55.86
6032;BME280;3044;43.232;27.972;2022-09-09T08:16:16;44965.28;;;-143.84;56.51
6032;BME280;3044;43.232;27.972;2022-09-09T08:18:47;44984.31;;;-143.84;55.27
6032;BME280;3044;43.232;27.972;2022-09-09T08:21:16;44982.41;;;-143.84;56.19
6032;BME280;3044;43.232;27.972;2022-09-09T08:23:46;44980.53;;;-143.84;57.46
6032;BME280;3044;43.232;27.972;2022-09-09T08:26:16;45010.97;;;-143.84;57.34
6032;BME280;3044;43.232;27.972;2022-09-09T08:28:48;44982.41;;;-143.84;57.75
6032;BME280;3044;43.232;27.972;2022-09-09T08:31:19;44974.81;;;-143.84;57.33
6032;BME280;3044;43.232;27.972;2022-09-09T08:33:47;44953.88;;;-143.84;56.92
6032;BME280;3044;43.232;27.972;2022-09-09T08:36:15;44986.22;;;-143.84;57.28
6032;BME280;3044;43.232;27.972;2022-09-09T08:38:42;45001.47;;;-143.84;58.60
6032;BME280;3044;43.232;27.972;2022-09-09T08:41:37;44988.13;;;-143.84;59.22
6032;BME280;3044;43.232;27.972;2022-09-09T08:44:08;45007.19;;;-143.84;57.59
6032;BME280;3044;43.232;27.972;2022-09-09T08:46:45;44948.16;;;-143.84;57.83
6032;BME280;3044;43.232;27.972;2022-09-09T08:49:25;44995.75;;;-143.84;56.94
6032;BME280;3044;43.232;27.972;2022-09-09T08:51:59;45003.38;;;-143.84;56.55
6032;BME280;3044;43.232;27.972;2022-09-09T08:54:30;44980.53;;;-143.84;57.71
6032;BME280;3044;43.232;27.972;2022-09-09T08:57:01;44978.63;;;-143.84;57.18
6032;BME280;3044;43.232;27.972;2022-09-09T08:59:29;44972.91;;;-143.84;57.88
6032;BME280;3044;43.232;27.972;2022-09-09T09:02:07;45010.97;;;-143.84;58.63
6032;BME280;3044;43.232;27.972;2022-09-09T09:04:55;44991.94;;;-143.84;59.28
6032;BME280;3044;43.232;27.972;2022-09-09T09:07:37;44967.19;;;-143.84;58.76
6032;BME280;3044;43.232;27.972;2022-09-09T09:10:16;44999.56;;;-143.84;59.39
6032;BME280;3044;43.232;27.972;2022-09-09T09:12:50;44991.94;;;-143.84;58.78
6032;BME280;3044;43.232;27.972;2022-09-09T09:15:20;44999.56;;;-143.84;58.23
6032;BME280;3044;43.232;27.972;2022-09-09T09:17:47;45003.38;;;-143.84;57.77
6032;BME280;3044;43.232;27.972;2022-09-09T09:20:18;44991.94;;;-143.84;56.74
6032;BME280;3044;43.232;27.972;2022-09-09T09:22:50;44976.72;;;-143.84;56.88
6032;BME280;3044;43.232;27.972;2022-09-09T09:25:19;44988.13;;;-143.84;57.65
6032;BME280;3044;43.232;27.972;2022-09-09T09:28:01;44955.75;;;-143.84;56.27
6032;BME280;3044;43.232;27.972;2022-09-09T09:30:36;45016.69;;;-143.84;56.92
6032;BME280;3044;43.232;27.972;2022-09-09T09:33:14;44974.81;;;-143.84;55.43
6032;BME280;3044;43.232;27.972;2022-09-09T09:35:42;45012.88;;;-143.84;56.34
6032;BME280;3044;43.232;27.972;2022-09-09T09:38:16;45003.38;;;-143.84;57.05
6032;BME280;3044;43.232;27.972;2022-09-09T09:40:51;44984.31;;;-143.84;54.58
6032;BME280;3044;43.232;27.972;2022-09-09T09:43:24;44993.84;;;-143.84;57.06
6032;BME280;3044;43.232;27.972;2022-09-09T09:45:52;44988.13;;;-143.84;55.14
6032;BME280;3044;43.232;27.972;2022-09-09T09:48:19;44991.94;;;-143.84;56.04
6032;BME280;3044;43.232;27.972;2022-09-09T09:50:49;44991.94;;;-143.84;56.26
6032;BME280;3044;43.232;27.972;2022-09-09T09:53:21;44969.09;;;-143.84;56.03
6032;BME280;3044;43.232;27.972;2022-09-09T09:55:55;44988.13;;;-143.84;55.59
6032;BME280;3044;43.232;27.972;2022-09-09T09:58:25;44999.56;;;-143.84;56.94
6032;BME280;3044;43.232;27.972;2022-09-09T10:00:54;44965.28;;;-143.84;58.30
6032;BME280;3044;43.232;27.972;2022-09-09T10:03:24;45007.19;;;-143.84;56.42
6032;BME280;3044;43.232;27.972;2022-09-09T10:05:52;44967.19;;;-143.84;58.82
6032;BME280;3044;43.232;27.972;2022-09-09T10:08:19;44993.84;;;-143.84;57.25
6032;BME280;3044;43.232;27.972;2022-09-09T10:13:50;44976.72;;;-143.84;56.13
6032;BME280;3044;43.232;27.972;2022-09-09T10:16:38;44972.91;;;-143.84;57.85
6032;BME280;3044;43.232;27.972;2022-09-09T10:19:12;44988.13;;;-143.84;56.84
6032;BME280;3044;43.232;27.972;2022-09-09T10:21:59;44997.66;;;-143.84;57.65
6032;BME280;3044;43.232;27.972;2022-09-09T10:24:43;45003.38;;;-143.84;59.69
6032;BME280;3044;43.232;27.972;2022-09-09T10:27:20;45001.47;;;-143.84;58.91
6032;BME280;3044;43.232;27.972;2022-09-09T10:30:03;44991.94;;;-143.84;59.30
6032;BME280;3044;43.232;27.972;2022-09-09T10:32:45;45018.59;;;-143.84;60.78
6032;BME280;3044;43.232;27.972;2022-09-09T10:35:22;45005.28;;;-143.84;61.14
6032;BME280;3044;43.232;27.972;2022-09-09T10:38:12;44995.75;;;-143.84;60.78
6032;BME280;3044;43.232;27.972;2022-09-09T10:40:45;44972.91;;;-143.84;60.37
6032;BME280;3044;43.232;27.972;2022-09-09T10:43:25;44990.03;;;-143.84;60.25
6032;BME280;3044;43.232;27.972;2022-09-09T10:46:01;45018.59;;;-143.84;61.29
6032;BME280;3044;43.232;27.972;2022-09-09T10:48:44;44999.56;;;-143.84;60.44
6032;BME280;3044;43.232;27.972;2022-09-09T10:51:23;45018.59;;;-143.84;59.70
6032;BME280;3044;43.232;27.972;2022-09-09T10:54:09;45026.22;;;-143.84;61.87
6032;BME280;3044;43.232;27.972;2022-09-09T10:56:39;45018.59;;;-143.84;62.47
6032;BME280;3044;43.232;27.972;2022-09-09T10:59:13;45020.50;;;-143.84;62.14
6032;BME280;3044;43.232;27.972;2022-09-09T11:01:44;45020.50;;;-143.84;61.86
6032;BME280;3044;43.232;27.972;2022-09-09T11:04:17;44999.56;;;-143.84;61.18
6032;BME280;3044;43.232;27.972;2022-09-09T11:06:49;45012.88;;;-143.84;62.80
6032;BME280;3044;43.232;27.972;2022-09-09T11:09:22;45028.13;;;-143.84;62.49
6032;BME280;3044;43.232;27.972;2022-09-09T11:11:52;45022.41;;;-143.84;64.17
6032;BME280;3044;43.232;27.972;2022-09-09T11:14:25;45009.09;;;-143.84;64.22
6032;BME280;3044;43.232;27.972;2022-09-09T11:16:58;45018.59;;;-143.84;65.01
6032;BME280;3044;43.232;27.972;2022-09-09T11:19:31;45005.28;;;-143.84;66.58
6032;BME280;3044;43.232;27.972;2022-09-09T11:22:02;45012.88;;;-143.84;64.94
6032;BME280;3044;43.232;27.972;2022-09-09T11:24:35;45005.28;;;-143.84;64.69
6032;BME280;3044;43.232;27.972;2022-09-09T11:27:08;45026.22;;;-143.84;63.68
6032;BME280;3044;43.232;27.972;2022-09-09T11:32:54;45026.22;;;-143.84;64.45
6032;BME280;3044;43.232;27.972;2022-09-09T11:35:34;45033.84;;;-143.84;63.83
6032;BME280;3044;43.232;27.972;2022-09-09T11:38:19;44991.94;;;-143.84;65.27
6032;BME280;3044;43.232;27.972;2022-09-09T11:40:55;44999.56;;;-143.84;65.08
6032;BME280;3044;43.232;27.972;2022-09-09T11:43:26;45014.78;;;-143.84;65.51
6032;BME280;3044;43.232;27.972;2022-09-09T11:45:56;44986.22;;;-143.84;65.88
6032;BME280;3044;43.232;27.972;2022-09-09T11:48:31;45020.50;;;-143.84;67.75
6032;BME280;3044;43.232;27.972;2022-09-09T11:51:02;45010.97;;;-143.84;67.10
6032;BME280;3044;43.232;27.972;2022-09-09T11:53:31;45024.31;;;-143.84;66.87
6032;BME280;3044;43.232;27.972;2022-09-09T11:56:12;45001.47;;;-143.84;67.51
6032;BME280;3044;43.232;27.972;2022-09-09T11:58:44;45003.38;;;-143.84;67.90
6032;BME280;3044;43.232;27.972;2022-09-09T12:01:30;45024.31;;;-143.84;66.19
6032;BME280;3044;43.232;27.972;2022-09-09T12:04:29;45012.88;;;-143.84;65.68
6032;BME280;3044;43.232;27.972;2022-09-09T12:07:00;45026.22;;;-143.84;66.34
6032;BME280;3044;43.232;27.972;2022-09-09T12:09:39;45026.22;;;-143.84;65.50
6032;BME280;3044;43.232;27.972;2022-09-09T12:12:25;45010.97;;;-143.84;65.88
6032;BME280;3044;43.232;27.972;2022-09-09T12:15:00;45028.13;;;-143.84;66.38
6032;BME280;3044;43.232;27.972;2022-09-09T12:17:29;45035.75;;;-143.84;66.19
6032;BME280;3044;43.232;27.972;2022-09-09T12:20:06;45010.97;;;-143.84;66.39
6032;BME280;3044;43.232;27.972;2022-09-09T12:22:43;45010.97;;;-143.84;65.51
6032;BME280;3044;43.232;27.972;2022-09-09T12:25:20;44991.94;;;-143.84;63.80
6032;BME280;3044;43.232;27.972;2022-09-09T12:28:04;45028.13;;;-143.84;64.12
6032;BME280;3044;43.232;27.972;2022-09-09T12:30:37;45037.66;;;-143.84;66.42
6032;BME280;3044;43.232;27.972;2022-09-09T12:33:10;45026.22;;;-143.84;67.41
6032;BME280;3044;43.232;27.972;2022-09-09T12:35:41;45028.13;;;-143.84;67.55
6032;BME280;3044;43.232;27.972;2022-09-09T12:38:13;45035.75;;;-143.84;67.37
6032;BME280;3044;43.232;27.972;2022-09-09T12:40:41;45028.13;;;-143.84;65.39
6032;BME280;3044;43.232;27.972;2022-09-09T12:43:19;45022.41;;;-143.84;65.84
6032;BME280;3044;43.232;27.972;2022-09-09T12:45:48;45024.31;;;-143.84;66.94
6032;BME280;3044;43.232;27.972;2022-09-09T12:48:26;45009.09;;;-143.84;67.47
6032;BME280;3044;43.232;27.972;2022-09-09T12:50:57;45009.09;;;-143.84;68.18
6032;BME280;3044;43.232;27.972;2022-09-09T12:53:27;45007.19;;;-143.84;67.57
6032;BME280;3044;43.232;27.972;2022-09-09T12:55:57;45018.59;;;-143.84;68.03
6032;BME280;3044;43.232;27.972;2022-09-09T12:58:26;45047.16;;;-143.84;68.41
6032;BME280;3044;43.232;27.972;2022-09-09T13:00:58;45018.59;;;-143.84;68.17
6032;BME280;3044;43.232;27.972;2022-09-09T13:03:26;45035.75;;;-143.84;67.92
6032;BME280;3044;43.232;27.972;2022-09-09T13:05:59;45041.44;;;-143.84;67.72
6032;BME280;3044;43.232;27.972;2022-09-09T13:08:36;45056.69;;;-143.84;68.78
6032;BME280;3044;43.232;27.972;2022-09-09T13:11:07;45005.28;;;-143.84;69.09
6032;BME280;3044;43.232;27.972;2022-09-09T13:13:38;45041.44;;;-143.84;69.01
6032;BME280;3044;43.232;27.972;2022-09-09T13:16:15;45022.41;;;-143.84;68.37
6032;BME280;3044;43.232;27.972;2022-09-09T13:18:45;45041.44;;;-143.84;66.46
6032;BME280;3044;43.232;27.972;2022-09-09T13:21:13;45026.22;;;-143.84;68.27
6032;BME280;3044;43.232;27.972;2022-09-09T13:23:41;45030.03;;;-143.84;69.06
6032;BME280;3044;43.232;27.972;2022-09-09T13:26:21;45033.84;;;-143.84;68.97
6032;BME280;3044;43.232;27.972;2022-09-09T13:28:49;45026.22;;;-143.84;69.39
6032;BME280;3044;43.232;27.972;2022-09-09T13:31:23;45022.41;;;-143.84;68.98
6032;BME280;3044;43.232;27.972;2022-09-09T13:33:53;45037.66;;;-143.84;68.78
6032;BME280;3044;43.232;27.972;2022-09-09T13:36:30;45039.53;;;-143.84;68.59
6032;BME280;3044;43.232;27.972;2022-09-09T13:38:59;45030.03;;;-143.84;68.78
6032;BME280;3044;43.232;27.972;2022-09-09T13:41:30;45018.59;;;-143.84;68.97
6032;BME280;3044;43.232;27.972;2022-09-09T13:43:59;45005.28;;;-143.84;69.59
6032;BME280;3044;43.232;27.972;2022-09-09T13:46:34;45037.66;;;-143.84;69.04
6032;BME280;3044;43.232;27.972;2022-09-09T13:49:19;45022.41;;;-143.84;68.50
6032;BME280;3044;43.232;27.972;2022-09-09T13:51:50;45018.59;;;-143.84;70.20
6032;BME280;3044;43.232;27.972;2022-09-09T13:54:20;45022.41;;;-143.84;70.69
6032;BME280;3044;43.232;27.972;2022-09-09T13:56:48;45022.41;;;-143.84;70.68
6032;BME280;3044;43.232;27.972;2022-09-09T13:59:18;45045.25;;;-143.84;70.48
6032;BME280;3044;43.232;27.972;2022-09-09T14:01:47;45037.66;;;-143.84;70.91
6032;BME280;3044;43.232;27.972;2022-09-09T14:04:15;45033.84;;;-143.84;70.42